createdAt,value
2023-03-30T00:00:13.670Z,27.19
2023-03-30T00:01:13.636Z,26.07
2023-03-30T00:02:13.620Z,26.12
2023-03-30T00:03:13.761Z,26.14
2023-03-30T00:04:13.695Z,26.29
2023-03-30T00:05:13.845Z,26.36
2023-03-30T00:06:13.512Z,26.40
2023-03-30T00:07:13.480Z,26.77
2023-03-30T00:08:13.457Z,26.95
2023-03-30T00:09:13.432Z,26.87
2023-03-30T00:10:13.411Z,26.67
2023-03-30T00:11:13.427Z,26.42
2023-03-30T00:12:13.346Z,25.27
2023-03-30T00:13:13.316Z,25.27
2023-03-30T00:14:13.306Z,27.28
2023-03-30T00:15:13.278Z,27.11
2023-03-30T00:16:13.319Z,27.23
2023-03-30T00:17:13.220Z,27.17
2023-03-30T00:18:13.192Z,27.48
2023-03-30T00:19:13.154Z,25.50
2023-03-30T00:20:13.234Z,25.45
2023-03-30T00:21:13.104Z,27.31
2023-03-30T00:22:13.078Z,26.29
2023-03-30T00:23:13.065Z,25.73
2023-03-30T00:24:13.038Z,26.42
2023-03-30T00:25:13.027Z,26.56
2023-03-30T00:26:12.989Z,26.68
2023-03-30T00:27:12.949Z,26.73
2023-03-30T00:28:12.927Z,26.25
2023-03-30T00:29:12.908Z,26.73
2023-03-30T00:30:12.880Z,27.38
2023-03-30T00:31:12.873Z,26.32
2023-03-30T00:32:12.930Z,27.77
2023-03-30T00:33:12.816Z,26.12
2023-03-30T00:34:12.786Z,27.90
2023-03-30T00:35:12.763Z,26.86
2023-03-30T00:36:12.844Z,27.35
2023-03-30T00:37:12.718Z,27.30
2023-03-30T00:38:12.703Z,27.93
2023-03-30T00:39:12.728Z,26.88
2023-03-30T00:40:12.732Z,25.00
2023-03-30T00:41:12.753Z,26.54
2023-03-30T00:42:12.763Z,25.56
2023-03-30T00:43:12.774Z,27.02
2023-03-30T00:44:12.789Z,26.43
2023-03-30T00:45:12.772Z,26.55
2023-03-30T00:46:12.757Z,26.66
2023-03-30T00:47:12.735Z,26.60
2023-03-30T00:48:12.768Z,26.69
2023-03-30T00:49:12.676Z,26.55
2023-03-30T00:50:12.666Z,26.65
2023-03-30T00:51:12.620Z,26.95
2023-03-30T00:52:12.608Z,27.04
2023-03-30T00:53:12.593Z,27.20
2023-03-30T00:54:12.579Z,26.58
2023-03-30T00:55:12.935Z,26.68
2023-03-30T00:56:12.511Z,26.65
2023-03-30T00:57:12.551Z,26.75
2023-03-30T00:58:12.475Z,26.62
2023-03-30T00:59:12.482Z,26.93
2023-03-30T01:00:12.444Z,26.93
2023-03-30T01:01:12.445Z,26.90
2023-03-30T01:02:12.494Z,27.17
2023-03-30T01:03:12.604Z,28.23
2023-03-30T01:04:12.360Z,25.76
2023-03-30T01:05:12.341Z,25.90
2023-03-30T01:06:12.322Z,25.86
2023-03-30T01:07:12.304Z,26.28
2023-03-30T01:08:12.288Z,25.94
2023-03-30T01:09:12.270Z,25.94
2023-03-30T01:10:12.238Z,26.10
2023-03-30T01:11:12.212Z,26.77
2023-03-30T01:12:12.204Z,26.11
2023-03-30T01:13:12.191Z,26.15
2023-03-30T01:14:12.157Z,27.39
2023-03-30T01:15:12.132Z,28.02
2023-03-30T01:16:12.153Z,28.08
2023-03-30T01:17:12.091Z,27.67
2023-03-30T01:18:12.127Z,26.52
2023-03-30T01:19:12.076Z,28.45
2023-03-30T01:20:12.072Z,28.09
2023-03-30T01:21:12.043Z,28.18
2023-03-30T01:22:12.026Z,28.08
2023-03-30T01:23:12.015Z,27.85
2023-03-30T01:24:12.012Z,27.36
2023-03-30T01:25:12.009Z,28.12
2023-03-30T01:26:11.985Z,27.92
2023-03-30T01:27:11.997Z,25.31
2023-03-30T01:28:11.971Z,28.07
2023-03-30T01:29:11.946Z,28.12
2023-03-30T01:30:11.953Z,28.13
2023-03-30T01:31:11.964Z,28.16
2023-03-30T01:32:11.918Z,28.11
2023-03-30T01:33:11.908Z,28.11
2023-03-30T01:34:11.907Z,28.23
2023-03-30T01:35:11.953Z,27.46
2023-03-30T01:36:11.941Z,26.23
2023-03-30T01:37:11.880Z,26.42
2023-03-30T01:38:11.872Z,27.38
2023-03-30T01:39:11.862Z,25.19
2023-03-30T01:40:11.856Z,27.37
2023-03-30T01:41:11.850Z,26.92
2023-03-30T01:42:11.837Z,27.04
2023-03-30T01:43:11.829Z,27.23
2023-03-30T01:44:11.825Z,27.10
2023-03-30T01:45:11.814Z,26.91
2023-03-30T01:46:11.838Z,26.38
2023-03-30T01:47:11.810Z,27.08
2023-03-30T01:48:11.781Z,26.93
2023-03-30T01:49:11.776Z,26.42
2023-03-30T01:50:11.812Z,26.97
2023-03-30T01:51:11.755Z,27.04
2023-03-30T01:52:11.748Z,26.89
2023-03-30T01:53:11.879Z,27.05
2023-03-30T01:54:11.731Z,27.07
2023-03-30T01:55:12.734Z,27.04
2023-03-30T01:56:11.718Z,27.16
2023-03-30T01:57:11.716Z,27.04
2023-03-30T01:58:11.678Z,26.99
2023-03-30T01:59:11.668Z,26.78
2023-03-30T02:00:11.650Z,25.34
2023-03-30T02:01:11.634Z,25.48
2023-03-30T02:02:11.710Z,25.72
2023-03-30T02:03:11.748Z,25.05
2023-03-30T02:04:11.598Z,25.86
2023-03-30T02:05:11.590Z,25.79
2023-03-30T02:06:11.598Z,27.42
2023-03-30T02:07:11.562Z,25.32
2023-03-30T02:08:11.595Z,25.37
2023-03-30T02:09:11.554Z,26.23
2023-03-30T02:10:11.528Z,25.04
2023-03-30T02:11:11.531Z,26.67
2023-03-30T02:12:11.508Z,27.45
2023-03-30T02:13:11.507Z,27.56
2023-03-30T02:14:11.480Z,27.63
2023-03-30T02:15:11.474Z,27.66
2023-03-30T02:16:11.494Z,27.76
2023-03-30T02:17:11.449Z,27.72
2023-03-30T02:18:11.452Z,28.38
2023-03-30T02:19:11.431Z,28.65
2023-03-30T02:20:11.424Z,25.63
2023-03-30T02:21:11.414Z,25.88
2023-03-30T02:22:11.407Z,26.23
2023-03-30T02:23:11.398Z,25.41
2023-03-30T02:24:11.405Z,26.60
2023-03-30T02:25:11.379Z,25.39
2023-03-30T02:26:11.360Z,25.43
2023-03-30T02:27:11.339Z,27.26
2023-03-30T02:28:11.337Z,27.35
2023-03-30T02:29:11.316Z,27.39
2023-03-30T02:30:11.301Z,27.64
2023-03-30T02:31:11.308Z,27.63
2023-03-30T02:32:11.264Z,29.03
2023-03-30T02:33:11.294Z,26.68
2023-03-30T02:34:11.230Z,26.59
2023-03-30T02:35:11.233Z,26.85
2023-03-30T02:36:11.275Z,26.35
2023-03-30T02:37:11.207Z,25.97
2023-03-30T02:38:11.177Z,26.01
2023-03-30T02:39:13.914Z,25.00
2023-03-30T02:40:11.139Z,27.20
2023-03-30T02:41:11.119Z,26.27
2023-03-30T02:42:11.096Z,25.46
2023-03-30T02:43:11.082Z,28.43
2023-03-30T02:44:11.060Z,28.60
2023-03-30T02:45:11.048Z,28.63
2023-03-30T02:46:11.109Z,28.95
2023-03-30T02:47:11.010Z,26.71
2023-03-30T02:48:11.021Z,28.46
2023-03-30T02:49:11.001Z,28.48
2023-03-30T02:50:10.966Z,27.15
2023-03-30T02:51:10.961Z,27.68
2023-03-30T02:52:10.944Z,27.90
2023-03-30T02:53:10.936Z,26.16
2023-03-30T02:54:10.909Z,28.31
2023-03-30T02:55:10.910Z,25.71
2023-03-30T02:56:10.890Z,25.58
2023-03-30T02:57:10.936Z,25.95
2023-03-30T02:58:10.858Z,26.06
2023-03-30T02:59:10.857Z,26.15
2023-03-30T03:00:10.844Z,25.45
2023-03-30T03:01:10.872Z,26.89
2023-03-30T03:02:10.856Z,26.93
2023-03-30T03:03:10.889Z,26.23
2023-03-30T03:04:10.796Z,25.23
2023-03-30T03:05:10.781Z,26.19
2023-03-30T03:06:10.756Z,25.80
2023-03-30T03:07:10.754Z,26.71
2023-03-30T03:08:10.731Z,25.89
2023-03-30T03:09:10.715Z,25.00
2023-03-30T03:10:10.707Z,25.88
2023-03-30T03:11:10.685Z,26.02
2023-03-30T03:12:10.673Z,26.13
2023-03-30T03:13:10.663Z,26.44
2023-03-30T03:14:10.646Z,26.05
2023-03-30T03:15:10.632Z,26.09
2023-03-30T03:16:10.610Z,26.02
2023-03-30T03:17:10.691Z,26.13
2023-03-30T03:18:10.605Z,26.29
2023-03-30T03:19:10.578Z,26.62
2023-03-30T03:20:10.579Z,26.58
2023-03-30T03:21:10.561Z,25.66
2023-03-30T03:22:10.542Z,25.88
2023-03-30T03:23:10.540Z,26.01
2023-03-30T03:24:10.512Z,26.10
2023-03-30T03:25:10.519Z,26.13
2023-03-30T03:26:10.492Z,25.73
2023-03-30T03:27:10.477Z,26.70
2023-03-30T03:28:10.460Z,26.24
2023-03-30T03:29:10.452Z,25.23
2023-03-30T03:30:10.439Z,25.49
2023-03-30T03:31:10.460Z,25.69
2023-03-30T03:32:10.408Z,25.00
2023-03-30T03:33:10.387Z,25.15
2023-03-30T03:34:11.370Z,25.24
2023-03-30T03:35:10.378Z,25.46
2023-03-30T03:36:10.395Z,26.22
2023-03-30T03:37:10.345Z,26.93
2023-03-30T03:38:10.314Z,25.30
2023-03-30T03:39:10.304Z,25.57
2023-03-30T03:40:10.286Z,26.00
2023-03-30T03:41:10.277Z,25.44
2023-03-30T03:42:10.267Z,26.55
2023-03-30T03:43:10.264Z,26.68
2023-03-30T03:44:10.232Z,26.79
2023-03-30T03:45:10.228Z,26.80
2023-03-30T03:46:10.303Z,27.06
2023-03-30T03:47:10.204Z,27.10
2023-03-30T03:48:10.210Z,26.70
2023-03-30T03:49:10.174Z,26.80
2023-03-30T03:50:10.160Z,27.21
2023-03-30T03:51:10.149Z,27.05
2023-03-30T03:52:10.133Z,27.22
2023-03-30T03:53:10.133Z,27.93
2023-03-30T03:54:10.112Z,26.56
2023-03-30T03:55:10.101Z,27.09
2023-03-30T03:56:10.086Z,27.16
2023-03-30T03:57:10.165Z,27.31
2023-03-30T03:58:10.061Z,27.23
2023-03-30T03:59:10.063Z,26.91
2023-03-30T04:00:10.028Z,25.68
2023-03-30T04:01:10.038Z,25.14
2023-03-30T04:02:10.065Z,25.48
2023-03-30T04:03:10.153Z,26.18
2023-03-30T04:04:09.988Z,27.51
2023-03-30T04:05:09.961Z,25.00
2023-03-30T04:06:09.945Z,26.50
2023-03-30T04:07:09.924Z,25.73
2023-03-30T04:08:09.909Z,26.08
2023-03-30T04:09:09.889Z,25.40
2023-03-30T04:10:09.892Z,26.05
2023-03-30T04:11:09.861Z,28.07
2023-03-30T04:12:09.879Z,26.33
2023-03-30T04:13:09.841Z,26.52
2023-03-30T04:14:09.833Z,26.54
2023-03-30T04:15:09.813Z,26.67
2023-03-30T04:16:09.828Z,27.13
2023-03-30T04:17:10.005Z,26.78
2023-03-30T04:18:10.793Z,26.77
2023-03-30T04:19:09.766Z,27.38
2023-03-30T04:20:09.754Z,27.18
2023-03-30T04:21:09.737Z,27.03
2023-03-30T04:22:09.737Z,26.71
2023-03-30T04:23:09.762Z,26.98
2023-03-30T04:24:09.703Z,27.00
2023-03-30T04:25:09.696Z,26.95
2023-03-30T04:26:09.688Z,26.13
2023-03-30T04:27:09.685Z,29.03
2023-03-30T04:28:09.656Z,28.07
2023-03-30T04:29:09.645Z,28.29
2023-03-30T04:30:09.644Z,28.40
2023-03-30T04:31:09.617Z,28.45
2023-03-30T04:32:09.641Z,28.56
2023-03-30T04:33:09.677Z,28.12
2023-03-30T04:34:09.582Z,27.61
2023-03-30T04:35:09.573Z,28.58
2023-03-30T04:36:09.589Z,28.09
2023-03-30T04:37:09.547Z,28.17
2023-03-30T04:38:09.545Z,28.27
2023-03-30T04:39:09.528Z,28.22
2023-03-30T04:40:09.495Z,28.25
2023-03-30T04:41:09.488Z,28.71
2023-03-30T04:42:09.474Z,28.41
2023-03-30T04:43:09.461Z,28.22
2023-03-30T04:44:09.458Z,28.33
2023-03-30T04:45:09.437Z,28.25
2023-03-30T04:46:09.443Z,28.39
2023-03-30T04:47:09.391Z,28.75
2023-03-30T04:48:09.480Z,28.23
2023-03-30T04:49:09.372Z,28.12
2023-03-30T04:50:09.391Z,28.35
2023-03-30T04:51:10.006Z,28.23
2023-03-30T04:52:09.322Z,27.75
2023-03-30T04:53:09.307Z,26.49
2023-03-30T04:54:09.302Z,26.63
2023-03-30T04:55:09.269Z,26.85
2023-03-30T04:56:09.252Z,26.92
2023-03-30T04:57:09.273Z,26.49
2023-03-30T04:58:09.239Z,27.30
2023-03-30T04:59:09.219Z,27.61
2023-03-30T05:00:09.214Z,26.09
2023-03-30T05:01:09.232Z,26.34
2023-03-30T05:02:09.209Z,26.53
2023-03-30T05:03:09.339Z,26.08
2023-03-30T05:04:09.160Z,26.44
2023-03-30T05:05:09.165Z,27.48
2023-03-30T05:06:09.142Z,26.34
2023-03-30T05:07:09.125Z,27.14
2023-03-30T05:08:09.113Z,26.51
2023-03-30T05:09:09.105Z,26.56
2023-03-30T05:10:09.093Z,26.51
2023-03-30T05:11:09.090Z,25.36
2023-03-30T05:12:10.069Z,26.63
2023-03-30T05:13:09.041Z,26.68
2023-03-30T05:14:09.030Z,26.90
2023-03-30T05:15:09.022Z,26.44
2023-03-30T05:16:10.014Z,26.57
2023-03-30T05:17:09.088Z,26.59
2023-03-30T05:18:09.026Z,26.07
2023-03-30T05:19:08.963Z,26.85
2023-03-30T05:20:08.954Z,27.55
2023-03-30T05:21:08.943Z,26.62
2023-03-30T05:22:08.932Z,28.76
2023-03-30T05:23:09.513Z,31.03
2023-03-30T05:24:08.888Z,31.17
2023-03-30T05:25:08.887Z,32.71
2023-03-30T05:26:08.996Z,34.30
2023-03-30T05:27:08.855Z,35.27
2023-03-30T05:28:08.842Z,43.32
2023-03-30T05:29:09.820Z,43.71
2023-03-30T05:30:08.815Z,45.27
2023-03-30T05:31:08.807Z,49.27
2023-03-30T05:32:08.780Z,57.76
2023-03-30T05:33:11.610Z,70.76
2023-03-30T05:34:08.753Z,78.78
2023-03-30T05:35:08.745Z,84.78
2023-03-30T05:36:08.738Z,85.09
2023-03-30T05:37:10.512Z,86.53
2023-03-30T05:38:08.681Z,91.16
2023-03-30T05:39:08.660Z,78.59
2023-03-30T05:40:08.645Z,58.61
2023-03-30T05:41:10.528Z,56.56
2023-03-30T05:42:09.023Z,51.56
2023-03-30T05:43:09.387Z,51.55
2023-03-30T05:44:08.705Z,48.26
2023-03-30T05:45:09.481Z,41.48
2023-03-30T05:46:08.774Z,45.29
2023-03-30T05:47:08.752Z,34.96
2023-03-30T05:48:08.781Z,34.63
2023-03-30T05:49:11.516Z,38.52
2023-03-30T05:50:08.818Z,45.22
2023-03-30T05:51:09.081Z,45.54
2023-03-30T05:52:10.022Z,46.08
2023-03-30T05:53:08.843Z,45.58
2023-03-30T05:54:11.526Z,46.38
2023-03-30T05:55:08.855Z,45.67
2023-03-30T05:56:08.875Z,47.58
2023-03-30T05:57:12.079Z,51.49
2023-03-30T05:58:09.712Z,46.16
2023-03-30T05:59:08.856Z,49.30
2023-03-30T06:00:09.531Z,56.20
2023-03-30T06:01:08.996Z,46.52
2023-03-30T06:02:10.814Z,50.88
2023-03-30T06:03:09.125Z,58.74
2023-03-30T06:04:09.061Z,71.55
2023-03-30T06:05:08.992Z,91.12
2023-03-30T06:06:08.988Z,97.68
2023-03-30T06:07:09.112Z,101.87
2023-03-30T06:08:08.942Z,105.08
2023-03-30T06:09:08.926Z,107.29
2023-03-30T06:10:08.932Z,115.13
2023-03-30T06:11:08.909Z,118.49
2023-03-30T06:12:08.916Z,117.47
2023-03-30T06:13:08.911Z,75.89
2023-03-30T06:14:11.530Z,66.10
2023-03-30T06:15:09.154Z,39.39
2023-03-30T06:16:09.192Z,41.20
2023-03-30T06:17:09.182Z,41.23
2023-03-30T06:18:09.273Z,39.77
2023-03-30T06:19:09.254Z,43.99
2023-03-30T06:20:09.247Z,41.72
2023-03-30T06:21:09.271Z,42.68
2023-03-30T06:22:09.277Z,43.69
2023-03-30T06:23:09.287Z,43.18
2023-03-30T06:24:09.299Z,42.44
2023-03-30T06:25:09.349Z,43.02
2023-03-30T06:26:09.335Z,43.09
2023-03-30T06:27:09.329Z,44.93
2023-03-30T06:28:09.325Z,48.56
2023-03-30T06:29:09.315Z,48.62
2023-03-30T06:30:09.324Z,52.02
2023-03-30T06:31:09.324Z,54.99
2023-03-30T06:32:09.599Z,55.22
2023-03-30T06:33:09.363Z,56.19
2023-03-30T06:34:09.299Z,59.17
2023-03-30T06:35:09.296Z,64.57
2023-03-30T06:36:09.312Z,72.44
2023-03-30T06:37:09.268Z,77.17
2023-03-30T06:38:09.271Z,80.72
2023-03-30T06:39:10.235Z,80.96
2023-03-30T06:40:09.221Z,81.91
2023-03-30T06:41:09.210Z,84.25
2023-03-30T06:42:09.193Z,88.49
2023-03-30T06:43:09.180Z,94.94
2023-03-30T06:44:09.161Z,97.81
2023-03-30T06:45:09.145Z,101.14
2023-03-30T06:46:09.145Z,105.45
2023-03-30T06:47:09.096Z,107.40
2023-03-30T06:48:09.177Z,110.96
2023-03-30T06:49:09.136Z,115.22
2023-03-30T06:50:09.170Z,118.15
2023-03-30T06:51:09.182Z,120.45
2023-03-30T06:52:09.284Z,124.28
2023-03-30T06:53:09.246Z,127.82
2023-03-30T06:54:09.275Z,132.83
2023-03-30T06:55:12.034Z,135.40
2023-03-30T06:56:09.559Z,138.51
2023-03-30T06:57:09.282Z,145.19
2023-03-30T06:58:09.257Z,145.64
2023-03-30T06:59:09.225Z,147.30
2023-03-30T07:00:09.216Z,151.48
2023-03-30T07:01:09.252Z,160.83
2023-03-30T07:02:09.164Z,174.18
2023-03-30T07:03:12.185Z,179.75
2023-03-30T07:04:09.153Z,188.75
2023-03-30T07:05:12.043Z,194.07
2023-03-30T07:06:13.557Z,194.57
2023-03-30T07:07:10.301Z,194.68
2023-03-30T07:08:09.051Z,196.70
2023-03-30T07:09:09.027Z,200.97
2023-03-30T07:10:08.997Z,195.06
2023-03-30T07:11:08.971Z,198.26
2023-03-30T07:12:09.565Z,195.15
2023-03-30T07:13:08.939Z,198.53
2023-03-30T07:14:11.552Z,206.43
2023-03-30T07:15:10.017Z,217.50
2023-03-30T07:16:09.109Z,228.08
2023-03-30T07:17:09.164Z,235.99
2023-03-30T07:18:09.155Z,237.88
2023-03-30T07:19:10.109Z,238.15
2023-03-30T07:20:09.121Z,238.41
2023-03-30T07:21:09.103Z,238.69
2023-03-30T07:22:09.063Z,240.57
2023-03-30T07:23:09.050Z,237.72
2023-03-30T07:24:09.038Z,238.15
2023-03-30T07:25:09.022Z,239.02
2023-03-30T07:26:09.026Z,240.68
2023-03-30T07:27:09.013Z,240.01
2023-03-30T07:28:09.009Z,237.93
2023-03-30T07:29:09.562Z,239.68
2023-03-30T07:30:20.624Z,239.09
2023-03-30T07:31:10.016Z,239.21
2023-03-30T07:32:08.979Z,239.40
2023-03-30T07:33:09.044Z,239.19
2023-03-30T07:34:08.944Z,237.84
2023-03-30T07:35:08.926Z,236.07
2023-03-30T07:36:08.953Z,239.15
2023-03-30T07:37:08.891Z,238.63
2023-03-30T07:38:08.883Z,236.82
2023-03-30T07:39:09.058Z,235.49
2023-03-30T07:40:08.905Z,234.65
2023-03-30T07:41:08.851Z,234.17
2023-03-30T07:42:08.874Z,233.74
2023-03-30T07:43:08.822Z,232.76
2023-03-30T07:44:09.107Z,232.89
2023-03-30T07:45:08.796Z,233.01
2023-03-30T07:46:08.858Z,232.93
2023-03-30T07:47:08.775Z,232.61
2023-03-30T07:48:08.857Z,231.97
2023-03-30T07:49:08.759Z,231.92
2023-03-30T07:50:08.743Z,231.12
2023-03-30T07:51:11.472Z,231.57
2023-03-30T07:52:08.717Z,231.45
2023-03-30T07:53:08.783Z,231.49
2023-03-30T07:54:09.551Z,230.18
2023-03-30T07:55:08.684Z,231.27
2023-03-30T07:56:08.729Z,230.82
2023-03-30T07:57:08.733Z,229.71
2023-03-30T07:58:08.648Z,229.04
2023-03-30T07:59:08.621Z,228.61
2023-03-30T08:00:08.613Z,228.62
2023-03-30T08:01:08.592Z,227.21
2023-03-30T08:02:08.599Z,226.79
2023-03-30T08:03:08.622Z,226.56
2023-03-30T08:04:08.616Z,226.58
2023-03-30T08:05:08.656Z,227.29
2023-03-30T08:06:08.516Z,225.99
2023-03-30T08:07:08.525Z,225.74
2023-03-30T08:08:08.505Z,223.75
2023-03-30T08:09:08.494Z,223.99
2023-03-30T08:10:08.539Z,222.44
2023-03-30T08:11:10.119Z,222.93
2023-03-30T08:12:08.430Z,222.30
2023-03-30T08:13:09.065Z,221.86
2023-03-30T08:14:08.434Z,224.06
2023-03-30T08:15:08.417Z,221.89
2023-03-30T08:16:08.422Z,221.55
2023-03-30T08:17:08.377Z,221.66
2023-03-30T08:18:08.516Z,221.10
2023-03-30T08:19:08.368Z,220.35
2023-03-30T08:20:08.356Z,221.05
2023-03-30T08:21:08.342Z,222.25
2023-03-30T08:22:08.329Z,222.27
2023-03-30T08:23:08.333Z,224.10
2023-03-30T08:24:08.306Z,224.32
2023-03-30T08:25:08.348Z,221.24
2023-03-30T08:26:08.373Z,223.00
2023-03-30T08:27:08.425Z,225.16
2023-03-30T08:28:08.400Z,225.25
2023-03-30T08:29:08.378Z,225.33
2023-03-30T08:30:09.082Z,225.51
2023-03-30T08:31:09.581Z,225.54
2023-03-30T08:32:08.633Z,226.58
2023-03-30T08:33:08.638Z,228.41
2023-03-30T08:34:09.585Z,225.56
2023-03-30T08:35:08.562Z,226.22
2023-03-30T08:36:08.594Z,226.93
2023-03-30T08:37:08.540Z,227.80
2023-03-30T08:38:11.061Z,229.14
2023-03-30T08:39:08.670Z,229.37
2023-03-30T08:40:11.500Z,229.45
2023-03-30T08:41:08.689Z,229.33
2023-03-30T08:42:11.572Z,229.81
2023-03-30T08:43:08.675Z,229.91
2023-03-30T08:44:08.673Z,229.53
2023-03-30T08:45:08.653Z,229.22
2023-03-30T08:46:09.644Z,228.92
2023-03-30T08:47:08.658Z,230.33
2023-03-30T08:48:09.595Z,229.97
2023-03-30T08:49:08.628Z,229.83
2023-03-30T08:50:08.743Z,229.81
2023-03-30T08:51:08.605Z,227.66
2023-03-30T08:52:08.593Z,229.88
2023-03-30T08:53:08.586Z,227.47
2023-03-30T08:54:08.583Z,229.89
2023-03-30T08:55:08.578Z,227.99
2023-03-30T08:56:10.579Z,227.34
2023-03-30T08:57:08.698Z,226.69
2023-03-30T08:58:08.551Z,225.11
2023-03-30T08:59:08.546Z,225.04
2023-03-30T09:00:08.548Z,224.89
2023-03-30T09:01:08.589Z,225.03
2023-03-30T09:02:08.514Z,225.12
2023-03-30T09:03:08.551Z,225.00
2023-03-30T09:04:08.518Z,225.06
2023-03-30T09:05:08.539Z,225.14
2023-03-30T09:06:08.495Z,222.72
2023-03-30T09:07:08.594Z,224.11
2023-03-30T09:08:08.460Z,223.05
2023-03-30T09:09:08.483Z,223.21
2023-03-30T09:10:08.452Z,223.12
2023-03-30T09:11:08.437Z,223.44
2023-03-30T09:12:08.435Z,223.18
2023-03-30T09:13:08.420Z,223.29
2023-03-30T09:14:08.410Z,223.19
2023-03-30T09:15:08.392Z,223.18
2023-03-30T09:16:08.468Z,223.20
2023-03-30T09:17:08.388Z,223.14
2023-03-30T09:18:08.398Z,222.52
2023-03-30T09:19:08.366Z,221.57
2023-03-30T09:20:08.345Z,221.16
2023-03-30T09:21:08.371Z,220.71
2023-03-30T09:22:08.340Z,223.11
2023-03-30T09:23:08.354Z,223.19
2023-03-30T09:24:08.313Z,223.12
2023-03-30T09:25:08.307Z,221.95
2023-03-30T09:26:08.319Z,221.70
2023-03-30T09:27:08.301Z,220.71
2023-03-30T09:28:08.280Z,220.33
2023-03-30T09:29:08.278Z,219.09
2023-03-30T09:30:08.259Z,219.23
2023-03-30T09:31:08.660Z,219.32
2023-03-30T09:32:08.304Z,218.79
2023-03-30T09:33:08.269Z,217.24
2023-03-30T09:34:09.599Z,218.83
2023-03-30T09:35:08.330Z,219.20
2023-03-30T09:36:08.348Z,217.82
2023-03-30T09:37:08.341Z,216.77
2023-03-30T09:38:08.363Z,216.29
2023-03-30T09:39:11.127Z,216.60
2023-03-30T09:40:08.400Z,216.54
2023-03-30T09:41:08.392Z,217.25
2023-03-30T09:42:09.107Z,216.32
2023-03-30T09:43:08.361Z,216.54
2023-03-30T09:44:08.343Z,215.18
2023-03-30T09:45:08.324Z,215.76
2023-03-30T09:46:08.507Z,215.22
2023-03-30T09:47:08.311Z,214.29
2023-03-30T09:48:08.339Z,213.67
2023-03-30T09:49:08.271Z,213.15
2023-03-30T09:50:08.274Z,214.46
2023-03-30T09:51:09.074Z,212.65
2023-03-30T09:52:08.243Z,212.99
2023-03-30T09:53:08.232Z,211.97
2023-03-30T09:54:08.214Z,213.15
2023-03-30T09:55:08.206Z,211.18
2023-03-30T09:56:08.189Z,212.47
2023-03-30T09:57:08.197Z,210.55
2023-03-30T09:58:08.166Z,212.32
2023-03-30T09:59:08.162Z,212.47
2023-03-30T10:00:08.146Z,211.11
2023-03-30T10:01:08.208Z,210.79
2023-03-30T10:02:10.158Z,210.72
2023-03-30T10:03:08.334Z,212.57
2023-03-30T10:04:11.352Z,210.94
2023-03-30T10:05:08.251Z,210.84
2023-03-30T10:06:08.299Z,211.09
2023-03-30T10:08:08.223Z,210.97
2023-03-30T10:09:08.203Z,210.95
2023-03-30T10:10:08.191Z,211.15
2023-03-30T10:11:08.173Z,209.04
2023-03-30T10:12:08.202Z,208.39
2023-03-30T10:13:08.188Z,205.82
2023-03-30T10:14:08.176Z,207.10
2023-03-30T10:15:08.141Z,206.56
2023-03-30T10:16:08.525Z,208.36
2023-03-30T10:17:08.160Z,205.85
2023-03-30T10:18:08.135Z,208.76
2023-03-30T10:19:11.152Z,208.95
2023-03-30T10:20:13.949Z,209.31
2023-03-30T10:21:09.069Z,209.12
2023-03-30T10:22:08.094Z,209.69
2023-03-30T10:23:08.046Z,210.91
2023-03-30T10:24:10.611Z,212.00
2023-03-30T10:25:10.014Z,213.89
2023-03-30T10:26:08.196Z,213.37
2023-03-30T10:27:08.223Z,211.94
2023-03-30T10:28:08.219Z,212.43
2023-03-30T10:29:08.240Z,209.82
2023-03-30T10:30:10.112Z,211.18
2023-03-30T10:31:15.147Z,210.16
2023-03-30T10:32:08.283Z,210.33
2023-03-30T10:33:08.298Z,210.17
2023-03-30T10:34:08.197Z,207.88
2023-03-30T10:35:08.224Z,205.50
2023-03-30T10:36:08.574Z,202.42
2023-03-30T10:37:08.141Z,199.37
2023-03-30T10:38:08.129Z,197.99
2023-03-30T10:39:08.105Z,196.55
2023-03-30T10:40:08.069Z,193.24
2023-03-30T10:41:08.052Z,189.21
2023-03-30T10:42:08.199Z,189.75
2023-03-30T10:43:09.011Z,190.14
2023-03-30T10:44:07.976Z,189.77
2023-03-30T10:45:10.605Z,185.73
2023-03-30T10:46:18.942Z,187.01
2023-03-30T10:47:08.943Z,189.94
2023-03-30T10:48:08.167Z,186.97
2023-03-30T10:49:07.866Z,187.85
2023-03-30T10:50:07.826Z,189.81
2023-03-30T10:51:08.610Z,187.70
2023-03-30T10:52:07.790Z,189.28
2023-03-30T10:53:07.773Z,189.77
2023-03-30T10:54:08.606Z,190.36
2023-03-30T10:55:07.712Z,191.71
2023-03-30T10:56:11.111Z,194.66
2023-03-30T10:57:07.775Z,192.87
2023-03-30T10:58:07.652Z,195.51
2023-03-30T10:59:07.612Z,197.91
2023-03-30T11:00:07.607Z,202.25
2023-03-30T11:01:08.615Z,202.56
2023-03-30T11:02:07.552Z,202.78
2023-03-30T11:03:07.600Z,205.49
2023-03-30T11:04:20.406Z,204.61
2023-03-30T11:05:07.493Z,204.89
2023-03-30T11:06:07.465Z,206.14
2023-03-30T11:07:07.431Z,208.78
2023-03-30T11:08:07.419Z,211.65
2023-03-30T11:09:07.535Z,215.69
2023-03-30T11:10:07.371Z,218.80
2023-03-30T11:11:08.057Z,216.78
2023-03-30T11:12:07.434Z,219.25
2023-03-30T11:13:07.299Z,216.02
2023-03-30T11:14:07.274Z,219.33
2023-03-30T11:15:07.276Z,218.65
2023-03-30T11:16:07.614Z,220.42
2023-03-30T11:17:08.220Z,220.60
2023-03-30T11:18:07.245Z,221.05
2023-03-30T11:19:08.239Z,222.52
2023-03-30T11:20:07.261Z,218.86
2023-03-30T11:21:07.131Z,223.24
2023-03-30T11:22:07.216Z,222.86
2023-03-30T11:23:07.082Z,219.68
2023-03-30T11:24:07.078Z,220.58
2023-03-30T11:25:07.075Z,221.82
2023-03-30T11:26:08.769Z,221.90
2023-03-30T11:27:07.026Z,221.84
2023-03-30T11:28:06.970Z,222.05
2023-03-30T11:29:06.954Z,223.17
2023-03-30T11:30:06.936Z,219.93
2023-03-30T11:31:06.939Z,222.17
2023-03-30T11:32:08.018Z,222.22
2023-03-30T11:33:06.924Z,221.59
2023-03-30T11:34:06.840Z,219.11
2023-03-30T11:35:06.822Z,222.10
2023-03-30T11:36:07.363Z,220.24
2023-03-30T11:37:06.825Z,222.85
2023-03-30T11:38:06.764Z,219.25
2023-03-30T11:39:06.773Z,221.75
2023-03-30T11:40:06.782Z,219.71
2023-03-30T11:41:06.744Z,221.41
2023-03-30T11:42:06.739Z,219.78
2023-03-30T11:43:06.713Z,220.77
2023-03-30T11:44:06.697Z,218.27
2023-03-30T11:45:06.669Z,216.36
2023-03-30T11:46:06.984Z,217.88
2023-03-30T11:47:06.644Z,216.16
2023-03-30T11:48:06.647Z,218.42
2023-03-30T11:49:06.585Z,214.64
2023-03-30T11:50:06.593Z,216.87
2023-03-30T11:51:06.903Z,215.74
2023-03-30T11:52:06.564Z,218.32
2023-03-30T11:53:07.529Z,218.49
2023-03-30T11:54:06.522Z,218.32
2023-03-30T11:55:06.493Z,217.64
2023-03-30T11:56:06.732Z,218.72
2023-03-30T11:57:06.477Z,214.20
2023-03-30T11:58:06.901Z,215.16
2023-03-30T11:59:06.417Z,216.23
2023-03-30T12:00:08.179Z,214.50
2023-03-30T12:01:06.814Z,216.58
2023-03-30T12:02:06.382Z,214.89
2023-03-30T12:03:06.458Z,211.98
2023-03-30T12:04:06.475Z,215.03
2023-03-30T12:05:06.532Z,215.20
2023-03-30T12:06:06.457Z,211.34
2023-03-30T12:07:06.322Z,213.43
2023-03-30T12:08:06.288Z,213.62
2023-03-30T12:09:07.168Z,211.05
2023-03-30T12:10:08.286Z,212.17
2023-03-30T12:11:06.554Z,210.32
2023-03-30T12:12:06.312Z,210.23
2023-03-30T12:13:06.347Z,207.95
2023-03-30T12:14:06.357Z,211.40
2023-03-30T12:15:06.371Z,211.24
2023-03-30T12:16:06.644Z,209.51
2023-03-30T12:17:06.422Z,210.28
2023-03-30T12:18:06.537Z,208.97
2023-03-30T12:19:06.476Z,209.89
2023-03-30T12:20:06.471Z,209.56
2023-03-30T12:21:06.540Z,209.91
2023-03-30T12:22:06.538Z,207.99
2023-03-30T12:23:06.569Z,206.30
2023-03-30T12:24:06.639Z,207.07
2023-03-30T12:25:06.640Z,205.98
2023-03-30T12:26:06.777Z,206.33
2023-03-30T12:27:11.112Z,206.13
2023-03-30T12:28:06.623Z,206.26
2023-03-30T12:30:06.596Z,206.85
2023-03-30T12:31:06.603Z,206.23
2023-03-30T12:32:06.679Z,205.67
2023-03-30T12:33:06.586Z,204.41
2023-03-30T12:34:06.563Z,204.11
2023-03-30T12:35:06.538Z,204.75
2023-03-30T12:36:06.814Z,202.66
2023-03-30T12:37:06.500Z,202.60
2023-03-30T12:38:06.506Z,202.91
2023-03-30T12:39:06.487Z,202.59
2023-03-30T12:40:06.521Z,201.26
2023-03-30T12:41:06.449Z,200.99
2023-03-30T12:42:06.501Z,201.81